createdAt,value
2022-10-26T00:01:13.633Z,17.85
2022-10-26T00:03:42.594Z,19.02
2022-10-26T00:06:13.637Z,18.23
2022-10-26T00:08:41.331Z,22.40
2022-10-26T00:11:08.927Z,18.58
2022-10-26T00:13:37.357Z,19.25
2022-10-26T00:16:13.853Z,19.05
2022-10-26T00:18:41.265Z,18.55
2022-10-26T00:21:10.495Z,16.92
2022-10-26T00:23:38.049Z,20.38
2022-10-26T00:26:05.436Z,19.20
2022-10-26T00:28:32.355Z,17.00
2022-10-26T00:31:14.879Z,18.30
2022-10-26T00:33:42.029Z,17.77
2022-10-26T00:36:10.204Z,20.13
2022-10-26T00:38:37.935Z,26.10
2022-10-26T00:41:05.514Z,16.67
2022-10-26T00:43:32.188Z,17.65
2022-10-26T00:46:00.101Z,20.35
2022-10-26T00:48:33.581Z,22.75
2022-10-26T00:51:06.525Z,16.77
2022-10-26T00:53:33.639Z,20.55
2022-10-26T00:56:01.461Z,19.48
2022-10-26T00:58:28.761Z,19.35
2022-10-26T01:00:55.933Z,19.00
2022-10-26T01:03:25.396Z,20.73
2022-10-26T01:05:57.063Z,17.20
2022-10-26T01:08:25.457Z,17.38
2022-10-26T01:10:52.693Z,17.13
2022-10-26T01:13:19.821Z,18.42
2022-10-26T01:16:23.937Z,17.08
2022-10-26T01:19:35.972Z,19.30
2022-10-26T01:22:26.596Z,19.63
2022-10-26T01:25:52.125Z,16.98
2022-10-26T01:28:46.297Z,17.77
2022-10-26T01:31:20.478Z,16.27
2022-10-26T01:34:01.629Z,19.77
2022-10-26T01:37:02.838Z,17.92
2022-10-26T01:39:46.781Z,17.55
2022-10-26T01:42:16.727Z,16.42
2022-10-26T01:44:59.663Z,15.80
2022-10-26T01:47:28.035Z,16.15
2022-10-26T01:49:58.625Z,18.83
2022-10-26T01:52:25.508Z,23.25
2022-10-26T01:54:52.325Z,15.95
2022-10-26T01:57:21.636Z,16.48
2022-10-26T02:00:09.961Z,15.20
2022-10-26T02:03:01.007Z,14.25
2022-10-26T02:05:53.553Z,19.02
2022-10-26T02:08:34.339Z,20.50
2022-10-26T02:11:24.378Z,21.40
2022-10-26T02:14:18.782Z,22.27
2022-10-26T02:16:58.218Z,21.08
2022-10-26T02:19:42.982Z,20.90
2022-10-26T02:22:19.727Z,17.27
2022-10-26T02:24:51.612Z,20.15
2022-10-26T02:27:31.885Z,21.63
2022-10-26T02:29:59.453Z,18.42
2022-10-26T02:32:31.660Z,19.45
2022-10-26T02:35:01.353Z,21.67
2022-10-26T02:37:29.131Z,19.05
2022-10-26T02:39:58.293Z,21.15
2022-10-26T02:42:27.018Z,19.42
2022-10-26T02:45:03.518Z,18.67
2022-10-26T02:47:30.625Z,20.42
2022-10-26T02:49:57.971Z,22.38
2022-10-26T02:52:53.513Z,20.38
2022-10-26T02:55:27.978Z,23.08
2022-10-26T02:58:00.325Z,20.67
2022-10-26T03:00:27.320Z,21.65
2022-10-26T03:02:57.672Z,26.38
2022-10-26T03:05:28.083Z,19.23
2022-10-26T03:07:56.143Z,24.10
2022-10-26T03:10:23.292Z,22.13
2022-10-26T03:12:50.499Z,20.77
2022-10-26T03:15:17.625Z,18.95
2022-10-26T03:17:44.503Z,19.70
2022-10-26T03:20:12.079Z,22.45
2022-10-26T03:22:39.080Z,21.40
2022-10-26T03:25:06.612Z,20.67
2022-10-26T03:27:35.086Z,22.48
2022-10-26T03:30:01.977Z,20.92
2022-10-26T03:32:28.837Z,23.90
2022-10-26T03:34:55.701Z,22.83
2022-10-26T03:37:22.547Z,23.02
2022-10-26T03:39:49.390Z,25.38
2022-10-26T03:42:16.276Z,24.00
2022-10-26T03:44:43.206Z,22.55
2022-10-26T03:47:10.033Z,21.95
2022-10-26T03:49:36.864Z,22.48
2022-10-26T03:52:03.908Z,23.92
2022-10-26T03:54:30.748Z,19.13
2022-10-26T03:56:57.577Z,23.67
2022-10-26T03:59:24.409Z,21.00
2022-10-26T04:01:54.034Z,19.60
2022-10-26T04:04:23.790Z,21.90
2022-10-26T04:06:50.654Z,22.13
2022-10-26T04:09:17.586Z,21.00
2022-10-26T04:11:44.425Z,19.55
2022-10-26T04:14:11.270Z,18.92
2022-10-26T04:16:38.139Z,25.33
2022-10-26T04:19:05.120Z,21.92
2022-10-26T04:21:33.164Z,19.27
2022-10-26T04:23:59.991Z,24.15
2022-10-26T04:26:26.862Z,20.50
2022-10-26T04:28:53.764Z,20.67
2022-10-26T04:31:20.625Z,23.85
2022-10-26T04:33:47.542Z,26.15
2022-10-26T04:36:14.396Z,31.15
2022-10-26T04:38:41.268Z,27.17
2022-10-26T04:41:08.074Z,27.15
2022-10-26T04:43:34.933Z,32.75
2022-10-26T04:46:01.745Z,29.67
2022-10-26T04:48:28.860Z,30.10
2022-10-26T04:50:59.860Z,28.92
2022-10-26T04:53:27.316Z,33.88
2022-10-26T04:55:58.695Z,27.58
2022-10-26T04:58:26.077Z,36.78
2022-10-26T05:00:52.968Z,30.25
2022-10-26T05:03:20.050Z,29.98
2022-10-26T05:05:49.647Z,30.58
2022-10-26T05:08:16.713Z,30.67
2022-10-26T05:10:48.332Z,32.65
2022-10-26T05:13:15.204Z,32.20
2022-10-26T05:15:42.083Z,27.70
2022-10-26T05:18:09.359Z,24.60
2022-10-26T05:20:37.020Z,29.00
2022-10-26T05:23:07.385Z,30.58
2022-10-26T05:25:38.571Z,30.98
2022-10-26T05:28:09.534Z,30.42
2022-10-26T05:30:36.550Z,30.40
2022-10-26T05:33:03.610Z,33.13
2022-10-26T05:35:31.950Z,31.45
2022-10-26T05:37:59.386Z,31.80
2022-10-26T05:40:26.654Z,28.77
2022-10-26T05:42:54.391Z,34.88
2022-10-26T05:45:21.302Z,28.83
2022-10-26T05:47:48.438Z,25.77
2022-10-26T05:50:15.567Z,25.42
2022-10-26T05:52:45.247Z,27.45
2022-10-26T05:55:15.160Z,25.40
2022-10-26T05:57:43.176Z,25.02
2022-10-26T06:00:20.210Z,20.40
2022-10-26T06:03:25.338Z,22.98
2022-10-26T06:05:54.426Z,26.38
2022-10-26T06:08:23.901Z,20.88
2022-10-26T06:10:51.667Z,22.60
2022-10-26T06:13:19.013Z,23.55
2022-10-26T06:16:25.004Z,23.58
2022-10-26T06:19:10.780Z,31.98
2022-10-26T06:22:06.978Z,32.20
2022-10-26T06:24:43.613Z,29.48
2022-10-26T06:27:31.424Z,31.50
2022-10-26T06:30:07.158Z,27.58
2022-10-26T06:32:34.346Z,28.17
2022-10-26T06:35:53.054Z,31.70
2022-10-26T06:38:22.393Z,29.13
2022-10-26T06:40:53.219Z,23.70
2022-10-26T06:43:29.652Z,27.35
2022-10-26T06:46:53.131Z,23.40
2022-10-26T06:49:40.723Z,24.02
2022-10-26T06:52:07.423Z,26.75
2022-10-26T06:54:54.709Z,26.67
2022-10-26T06:57:28.890Z,25.00
2022-10-26T07:00:03.097Z,25.77
2022-10-26T07:02:30.162Z,25.23
2022-10-26T07:04:57.044Z,23.40
2022-10-26T07:07:27.189Z,21.75
2022-10-26T07:09:54.067Z,23.60
2022-10-26T07:12:20.936Z,19.83
2022-10-26T07:14:48.116Z,23.10
2022-10-26T07:17:15.060Z,20.48
2022-10-26T07:19:44.717Z,20.80
2022-10-26T07:22:12.179Z,19.60
2022-10-26T07:24:39.507Z,21.25
2022-10-26T07:27:06.331Z,19.90
2022-10-26T07:29:35.225Z,18.65
2022-10-26T07:32:02.368Z,20.20
2022-10-26T07:34:29.230Z,20.15
2022-10-26T07:36:56.054Z,20.98
2022-10-26T07:39:22.896Z,18.65
2022-10-26T07:41:49.752Z,25.70
2022-10-26T07:44:16.694Z,24.50
2022-10-26T07:46:43.554Z,23.15
2022-10-26T07:49:10.657Z,20.13
2022-10-26T07:51:37.679Z,21.55
2022-10-26T07:54:04.691Z,19.33
2022-10-26T07:56:31.717Z,22.50
2022-10-26T07:58:58.691Z,22.77
2022-10-26T08:01:25.786Z,21.48
2022-10-26T08:03:54.148Z,26.25
2022-10-26T08:06:22.846Z,20.10
2022-10-26T08:08:50.147Z,22.77
2022-10-26T08:11:17.683Z,23.30
2022-10-26T08:13:44.900Z,24.50
2022-10-26T08:16:12.053Z,22.92
2022-10-26T08:18:38.884Z,20.08
2022-10-26T08:21:13.745Z,22.73
2022-10-26T08:23:45.122Z,27.05
2022-10-26T08:26:11.980Z,23.23
2022-10-26T08:28:40.210Z,18.75
2022-10-26T08:31:07.667Z,25.15
2022-10-26T08:33:34.507Z,22.55
2022-10-26T08:36:05.581Z,27.48
2022-10-26T08:38:33.986Z,20.23
2022-10-26T08:41:08.964Z,23.58
2022-10-26T08:43:56.216Z,24.90
2022-10-26T08:46:34.315Z,22.80
2022-10-26T08:49:13.691Z,24.40
2022-10-26T08:51:42.437Z,23.55
2022-10-26T08:54:19.306Z,27.40
2022-10-26T08:57:26.740Z,29.17
2022-10-26T08:59:58.369Z,28.67
2022-10-26T09:02:25.360Z,24.58
2022-10-26T09:04:54.134Z,40.53
2022-10-26T09:07:30.240Z,71.82
2022-10-26T09:11:01.024Z,34.40
2022-10-26T09:13:59.010Z,28.80
2022-10-26T09:17:01.830Z,23.38
2022-10-26T09:19:59.219Z,19.38
2022-10-26T09:22:58.452Z,22.38
2022-10-26T09:25:29.949Z,19.27
2022-10-26T09:28:01.574Z,19.65
2022-10-26T09:30:30.365Z,24.05
2022-10-26T09:33:05.755Z,21.25
2022-10-26T09:35:51.298Z,18.58
2022-10-26T09:39:09.003Z,19.00
2022-10-26T09:41:49.754Z,17.00
2022-10-26T09:44:38.536Z,19.88
2022-10-26T09:47:24.652Z,23.75
2022-10-26T09:50:00.807Z,18.92
2022-10-26T09:52:27.756Z,23.08
2022-10-26T09:54:54.576Z,20.73
2022-10-26T09:57:21.695Z,15.80
2022-10-26T09:59:50.656Z,21.73
2022-10-26T10:02:43.781Z,19.75
2022-10-26T10:08:22.324Z,19.90
2022-10-26T10:11:12.529Z,20.17
2022-10-26T10:13:44.940Z,26.77
2022-10-26T10:16:22.427Z,26.35
2022-10-26T10:19:02.163Z,22.10
2022-10-26T10:21:44.237Z,20.15
2022-10-26T10:24:25.582Z,27.67
2022-10-26T10:27:15.597Z,28.45
2022-10-26T10:29:59.696Z,23.05
2022-10-26T10:32:35.461Z,31.15
2022-10-26T10:35:29.838Z,58.75
2022-10-26T10:37:57.140Z,59.67
2022-10-26T10:40:31.227Z,62.75
2022-10-26T10:43:14.328Z,41.60
2022-10-26T10:45:50.411Z,27.23
2022-10-26T10:48:22.258Z,26.98
2022-10-26T10:50:53.987Z,24.13
2022-10-26T10:53:29.640Z,27.88
2022-10-26T10:56:13.740Z,23.27
2022-10-26T10:58:54.644Z,20.80
2022-10-26T11:01:23.509Z,21.10
2022-10-26T11:04:25.414Z,19.75
2022-10-26T11:06:54.196Z,24.10
2022-10-26T11:09:27.874Z,22.48
2022-10-26T11:12:03.159Z,19.85
2022-10-26T11:14:58.237Z,18.23
2022-10-26T11:17:46.065Z,22.58
2022-10-26T11:20:20.171Z,20.33
2022-10-26T11:22:54.249Z,21.17
2022-10-26T11:25:54.256Z,23.10
2022-10-26T11:28:34.531Z,20.67
2022-10-26T11:31:08.099Z,27.55
2022-10-26T11:33:43.297Z,18.23
2022-10-26T11:36:19.733Z,21.23
2022-10-26T11:38:58.237Z,19.90
2022-10-26T11:41:47.633Z,21.55
2022-10-26T11:44:39.640Z,21.00
2022-10-26T11:47:19.917Z,20.48
2022-10-26T11:50:00.980Z,20.20
2022-10-26T11:52:43.473Z,26.58
2022-10-26T11:55:11.563Z,20.60
2022-10-26T11:57:39.006Z,22.40
2022-10-26T12:00:12.912Z,22.05
2022-10-26T12:05:35.120Z,20.67
2022-10-26T12:08:13.726Z,20.58
2022-10-26T12:10:43.656Z,19.15
2022-10-26T12:13:42.824Z,20.30
2022-10-26T12:16:34.915Z,20.08
2022-10-26T12:19:29.719Z,21.33
2022-10-26T12:21:57.056Z,19.23
2022-10-26T12:24:23.875Z,17.15
2022-10-26T12:26:52.904Z,18.95
2022-10-26T12:29:46.347Z,22.13
2022-10-26T12:32:28.358Z,18.35
2022-10-26T12:34:55.052Z,17.75
2022-10-26T12:37:37.197Z,21.95
2022-10-26T12:40:43.087Z,18.08
2022-10-26T12:43:15.974Z,21.55
2022-10-26T12:45:45.637Z,21.80
2022-10-26T12:48:42.518Z,19.08
2022-10-26T12:51:21.665Z,20.60
2022-10-26T12:54:35.330Z,20.20
2022-10-26T12:57:31.363Z,20.33
2022-10-26T13:00:05.840Z,19.42
2022-10-26T13:03:08.441Z,19.23
2022-10-26T13:06:10.748Z,18.67
2022-10-26T13:08:43.966Z,20.20
2022-10-26T13:11:41.638Z,19.92
2022-10-26T13:14:37.159Z,15.23
2022-10-26T13:17:06.320Z,23.80
2022-10-26T13:19:47.349Z,15.13
2022-10-26T13:22:21.864Z,21.75
2022-10-26T13:25:03.111Z,29.67
2022-10-26T13:28:05.037Z,22.20
2022-10-26T13:30:46.123Z,24.65
2022-10-26T13:33:22.554Z,26.23
2022-10-26T13:35:54.594Z,21.58
2022-10-26T13:38:27.349Z,18.50
2022-10-26T13:41:06.685Z,21.48
2022-10-26T13:43:36.220Z,22.55
2022-10-26T13:46:04.435Z,19.73
2022-10-26T13:48:42.016Z,22.92
2022-10-26T13:51:21.720Z,20.95
2022-10-26T13:54:00.380Z,19.40
2022-10-26T13:56:35.193Z,23.13
2022-10-26T13:59:06.234Z,19.20
2022-10-26T14:01:33.284Z,24.52
2022-10-26T14:04:00.356Z,21.65
2022-10-26T14:06:38.749Z,19.23
2022-10-26T14:09:12.597Z,20.70
2022-10-26T14:11:55.484Z,22.13
2022-10-26T14:14:29.223Z,21.50
2022-10-26T14:16:57.180Z,26.02
2022-10-26T14:19:34.941Z,21.08
2022-10-26T14:22:02.975Z,20.75
2022-10-26T14:24:47.353Z,17.80
2022-10-26T14:27:21.969Z,23.30
2022-10-26T14:30:16.703Z,21.10
2022-10-26T14:32:37.829Z,19.52
2022-10-26T14:35:05.099Z,17.48
2022-10-26T14:37:46.156Z,17.83
2022-10-26T14:40:23.217Z,19.50
2022-10-26T14:42:55.009Z,17.48
2022-10-26T14:45:48.162Z,19.65
2022-10-26T14:48:35.159Z,21.48
2022-10-26T14:51:07.966Z,22.98
2022-10-26T14:53:40.746Z,21.33
2022-10-26T14:56:40.043Z,22.35
2022-10-26T14:59:41.190Z,19.00
2022-10-26T15:02:11.106Z,23.40
2022-10-26T15:04:57.317Z,22.42
2022-10-26T15:07:24.901Z,17.88
2022-10-26T15:09:53.428Z,21.08
2022-10-26T15:12:34.302Z,17.27
2022-10-26T15:15:14.565Z,21.13
2022-10-26T15:17:48.609Z,20.15
2022-10-26T15:20:29.147Z,15.10
2022-10-26T15:23:01.998Z,18.27
2022-10-26T15:25:33.230Z,20.52
2022-10-26T15:28:43.298Z,20.65
2022-10-26T15:31:14.554Z,20.85
2022-10-26T15:34:03.982Z,20.33
2022-10-26T15:36:32.083Z,24.85
2022-10-26T15:38:59.644Z,22.67
2022-10-26T15:41:38.856Z,22.13
2022-10-26T15:44:21.700Z,26.23
2022-10-26T15:46:50.074Z,21.13
2022-10-26T15:49:20.531Z,23.88
2022-10-26T15:51:48.856Z,24.65
2022-10-26T15:54:15.694Z,31.77
2022-10-26T15:56:46.317Z,19.83
2022-10-26T15:59:20.509Z,19.73
2022-10-26T16:01:47.491Z,21.88
2022-10-26T16:04:14.613Z,19.45
2022-10-26T16:06:42.485Z,23.02
2022-10-26T16:09:18.137Z,24.00
2022-10-26T16:11:45.481Z,22.10
2022-10-26T16:14:12.926Z,20.77
2022-10-26T16:16:40.058Z,22.52
2022-10-26T16:21:55.587Z,21.50
2022-10-26T16:24:22.647Z,18.60
2022-10-26T16:26:49.509Z,21.55
2022-10-26T16:29:16.426Z,19.52
2022-10-26T16:31:43.361Z,21.75
2022-10-26T16:34:10.213Z,24.63
2022-10-26T16:36:38.574Z,27.73
2022-10-26T16:39:06.552Z,36.55
2022-10-26T16:41:34.655Z,35.05
2022-10-26T16:44:01.520Z,37.00
2022-10-26T16:46:28.356Z,34.65
2022-10-26T16:48:55.222Z,34.13
2022-10-26T16:51:26.532Z,33.50
2022-10-26T16:53:55.847Z,34.42
2022-10-26T16:56:31.732Z,37.00
2022-10-26T16:59:18.571Z,31.52
2022-10-26T17:01:45.470Z,35.55
2022-10-26T17:04:12.370Z,32.72
2022-10-26T17:06:39.209Z,26.85
2022-10-26T17:09:06.026Z,29.73
2022-10-26T17:11:32.855Z,31.35
2022-10-26T17:13:59.737Z,34.05
2022-10-26T17:16:26.667Z,30.77
2022-10-26T17:18:54.055Z,34.15
2022-10-26T17:21:34.280Z,25.88
2022-10-26T17:24:02.239Z,28.45
2022-10-26T17:26:29.668Z,30.73
2022-10-26T17:28:57.617Z,29.77
2022-10-26T17:31:25.834Z,37.40
2022-10-26T17:33:52.790Z,38.13
2022-10-26T17:36:22.420Z,54.70
2022-10-26T17:38:51.888Z,58.92
2022-10-26T17:41:20.835Z,62.00
2022-10-26T17:43:49.333Z,54.70
2022-10-26T17:46:19.806Z,55.40
2022-10-26T17:48:46.871Z,64.70
2022-10-26T17:51:17.336Z,70.47
2022-10-26T17:53:48.310Z,57.63
2022-10-26T17:56:20.557Z,79.90
2022-10-26T17:59:02.214Z,99.18
2022-10-26T18:01:30.273Z,97.47
2022-10-26T18:03:57.146Z,81.20
2022-10-26T18:06:24.479Z,93.70
2022-10-26T18:08:51.480Z,78.73
2022-10-26T18:11:26.426Z,74.60
2022-10-26T18:13:57.525Z,70.50
2022-10-26T18:16:26.701Z,84.03
2022-10-26T18:19:02.824Z,80.55
2022-10-26T18:21:33.437Z,85.28
2022-10-26T18:24:00.349Z,86.23
2022-10-26T18:26:29.231Z,78.55
2022-10-26T18:29:00.919Z,72.27
2022-10-26T18:31:29.664Z,69.77
2022-10-26T18:34:01.522Z,63.07
2022-10-26T18:36:29.911Z,67.35
2022-10-26T18:38:57.008Z,61.27
2022-10-26T18:41:25.375Z,65.40
2022-10-26T18:43:55.079Z,61.77
2022-10-26T18:46:25.291Z,62.17
2022-10-26T18:48:53.018Z,60.67
2022-10-26T18:51:23.818Z,58.03
2022-10-26T18:53:50.774Z,51.93
2022-10-26T18:56:20.791Z,50.90
2022-10-26T18:58:54.024Z,50.27
2022-10-26T19:01:31.910Z,51.90
2022-10-26T19:04:01.828Z,46.03
2022-10-26T19:06:32.120Z,49.93
2022-10-26T19:08:59.336Z,53.33
2022-10-26T19:11:29.188Z,59.87
2022-10-26T19:13:56.588Z,60.13
2022-10-26T19:16:44.488Z,69.53
2022-10-26T19:19:13.880Z,61.60
2022-10-26T19:21:40.775Z,61.90
2022-10-26T19:24:22.784Z,60.27
2022-10-26T19:26:51.345Z,63.63
2022-10-26T19:29:19.596Z,69.30
2022-10-26T19:31:48.441Z,56.17
2022-10-26T19:34:16.530Z,62.60
2022-10-26T19:36:46.151Z,60.50
2022-10-26T19:39:15.500Z,63.93
2022-10-26T19:41:42.961Z,62.47
2022-10-26T19:44:11.807Z,64.10
2022-10-26T19:46:39.524Z,60.73
2022-10-26T19:49:06.756Z,66.10
2022-10-26T19:51:33.670Z,59.63
2022-10-26T19:54:03.841Z,64.93
2022-10-26T19:56:32.680Z,77.10
2022-10-26T19:58:59.834Z,75.20
2022-10-26T20:01:27.082Z,75.80
2022-10-26T20:03:54.553Z,71.70
2022-10-26T20:06:21.368Z,74.20
2022-10-26T20:08:49.760Z,73.77
2022-10-26T20:11:18.196Z,71.87
2022-10-26T20:13:46.980Z,71.07
2022-10-26T20:16:16.210Z,66.97
2022-10-26T20:18:47.529Z,66.73
2022-10-26T20:21:17.398Z,64.23
2022-10-26T20:23:45.046Z,74.47
2022-10-26T20:26:18.249Z,76.83
2022-10-26T20:28:49.111Z,66.40
2022-10-26T20:31:15.972Z,79.70
2022-10-26T20:33:43.285Z,69.90
2022-10-26T20:36:10.176Z,67.50
2022-10-26T20:38:39.096Z,63.97
2022-10-26T20:41:09.320Z,63.72
2022-10-26T20:43:39.963Z,68.07
2022-10-26T20:46:27.710Z,61.27
2022-10-26T20:48:55.245Z,78.90
2022-10-26T20:52:20.026Z,64.83
2022-10-26T20:55:36.489Z,59.50
2022-10-26T20:58:10.416Z,62.17
2022-10-26T21:00:50.203Z,49.40
2022-10-26T21:03:17.107Z,52.40
2022-10-26T21:05:46.904Z,47.97
2022-10-26T21:08:14.210Z,48.03
2022-10-26T21:10:41.079Z,50.87
2022-10-26T21:13:07.903Z,49.27
2022-10-26T21:15:36.075Z,48.00
2022-10-26T21:18:03.334Z,49.23
2022-10-26T21:20:31.186Z,42.70
2022-10-26T21:22:58.039Z,41.23
2022-10-26T21:25:24.908Z,45.60
2022-10-26T21:27:56.833Z,44.60
2022-10-26T21:30:24.700Z,45.53
2022-10-26T21:32:52.880Z,46.00
2022-10-26T21:35:20.920Z,44.73
2022-10-26T21:37:48.036Z,46.63
2022-10-26T21:40:15.469Z,47.00
2022-10-26T21:42:42.318Z,50.90
2022-10-26T21:45:09.443Z,48.20
2022-10-26T21:47:36.316Z,52.90
2022-10-26T21:50:03.197Z,52.40
2022-10-26T21:52:30.028Z,54.60
2022-10-26T21:54:57.126Z,53.73
2022-10-26T21:57:24.443Z,54.07
2022-10-26T21:59:51.341Z,49.27
2022-10-26T22:02:18.247Z,48.97
2022-10-26T22:04:45.150Z,50.67
2022-10-26T22:07:12.017Z,51.57
2022-10-26T22:09:49.384Z,53.53
2022-10-26T22:12:25.651Z,52.17
2022-10-26T22:14:52.515Z,47.00
2022-10-26T22:17:19.345Z,48.37
2022-10-26T22:19:46.184Z,48.70
2022-10-26T22:22:13.018Z,47.23
2022-10-26T22:24:39.849Z,45.33
2022-10-26T22:27:06.732Z,49.63
2022-10-26T22:29:33.552Z,44.23
2022-10-26T22:32:00.389Z,43.10
2022-10-26T22:34:27.228Z,47.00
2022-10-26T22:36:54.035Z,42.90
2022-10-26T22:39:20.858Z,44.20
2022-10-26T22:41:49.308Z,42.37
2022-10-26T22:44:16.159Z,47.67
2022-10-26T22:46:42.977Z,51.23
2022-10-26T22:49:11.817Z,45.00
2022-10-26T22:51:38.798Z,45.27
2022-10-26T22:54:05.948Z,45.10
2022-10-26T22:56:35.218Z,42.90
2022-10-26T22:59:02.175Z,39.27
2022-10-26T23:01:32.723Z,42.97
2022-10-26T23:04:00.448Z,43.90
2022-10-26T23:06:30.416Z,38.67
2022-10-26T23:08:57.876Z,38.77
2022-10-26T23:11:27.133Z,36.47
2022-10-26T23:13:55.914Z,41.57
2022-10-26T23:16:23.858Z,41.43
2022-10-26T23:18:53.169Z,35.23
2022-10-26T23:21:22.942Z,38.23
2022-10-26T23:23:49.823Z,37.50
2022-10-26T23:26:21.018Z,39.03
2022-10-26T23:28:48.163Z,34.90
2022-10-26T23:31:21.518Z,37.20
2022-10-26T23:33:51.330Z,36.30
2022-10-26T23:36:18.751Z,33.97
2022-10-26T23:38:45.977Z,31.33
2022-10-26T23:41:13.346Z,29.77
2022-10-26T23:43:40.807Z,34.10
2022-10-26T23:46:07.940Z,35.03
2022-10-26T23:48:34.749Z,32.73
2022-10-26T23:51:01.707Z,32.47
2022-10-26T23:53:28.630Z,31.13
2022-10-26T23:55:55.455Z,35.50
2022-10-26T23:58:22.313Z,36.87
